sensor_id;sensor_type;location;lat;lon;timestamp;P1;durP1;ratioP1;P2;durP2;ratioP2
10987;SDS011;5547;42.672;23.230;2024-01-07T00:03:03;21.10;;;13.98;;
10987;SDS011;5547;42.672;23.230;2024-01-07T00:07:01;17.02;;;12.25;;
10987;SDS011;5547;42.672;23.230;2024-01-07T00:11:00;19.17;;;13.27;;
10987;SDS011;5547;42.672;23.230;2024-01-07T00:14:59;19.38;;;14.43;;
10987;SDS011;5547;42.672;23.230;2024-01-07T00:18:58;19.80;;;14.55;;
10987;SDS011;5547;42.672;23.230;2024-01-07T00:22:57;20.40;;;14.45;;
10987;SDS011;5547;42.672;23.230;2024-01-07T00:26:56;21.35;;;14.30;;
10987;SDS011;5547;42.672;23.230;2024-01-07T00:30:55;22.50;;;15.13;;
10987;SDS011;5547;42.672;23.230;2024-01-07T00:34:54;22.10;;;15.90;;
10987;SDS011;5547;42.672;23.230;2024-01-07T00:38:53;22.95;;;15.48;;
10987;SDS011;5547;42.672;23.230;2024-01-07T00:42:52;22.42;;;16.58;;
10987;SDS011;5547;42.672;23.230;2024-01-07T00:46:51;24.83;;;15.88;;
10987;SDS011;5547;42.672;23.230;2024-01-07T00:50:50;26.48;;;16.27;;
10987;SDS011;5547;42.672;23.230;2024-01-07T00:54:48;24.45;;;16.42;;
10987;SDS011;5547;42.672;23.230;2024-01-07T00:58:47;24.17;;;16.13;;
10987;SDS011;5547;42.672;23.230;2024-01-07T01:02:46;23.20;;;14.52;;
10987;SDS011;5547;42.672;23.230;2024-01-07T01:06:45;24.42;;;16.02;;
10987;SDS011;5547;42.672;23.230;2024-01-07T01:10:44;21.27;;;15.05;;
10987;SDS011;5547;42.672;23.230;2024-01-07T01:14:44;25.38;;;15.98;;
10987;SDS011;5547;42.672;23.230;2024-01-07T01:18:42;22.48;;;15.38;;
10987;SDS011;5547;42.672;23.230;2024-01-07T01:22:41;22.77;;;14.70;;
10987;SDS011;5547;42.672;23.230;2024-01-07T01:26:40;26.40;;;16.63;;
10987;SDS011;5547;42.672;23.230;2024-01-07T01:30:39;26.13;;;18.10;;
10987;SDS011;5547;42.672;23.230;2024-01-07T01:34:39;27.85;;;17.80;;
10987;SDS011;5547;42.672;23.230;2024-01-07T01:38:38;27.10;;;16.13;;
10987;SDS011;5547;42.672;23.230;2024-01-07T01:42:42;29.92;;;18.83;;
10987;SDS011;5547;42.672;23.230;2024-01-07T01:46:41;25.58;;;17.60;;
10987;SDS011;5547;42.672;23.230;2024-01-07T01:50:41;27.47;;;16.87;;
10987;SDS011;5547;42.672;23.230;2024-01-07T01:54:40;25.52;;;16.75;;
10987;SDS011;5547;42.672;23.230;2024-01-07T01:58:39;25.45;;;16.95;;
10987;SDS011;5547;42.672;23.230;2024-01-07T02:02:38;25.38;;;16.88;;
10987;SDS011;5547;42.672;23.230;2024-01-07T02:06:37;25.58;;;17.45;;
10987;SDS011;5547;42.672;23.230;2024-01-07T02:10:36;27.70;;;16.77;;
10987;SDS011;5547;42.672;23.230;2024-01-07T02:14:35;27.00;;;17.67;;
10987;SDS011;5547;42.672;23.230;2024-01-07T02:18:34;26.08;;;17.88;;
10987;SDS011;5547;42.672;23.230;2024-01-07T02:22:33;25.13;;;17.10;;
10987;SDS011;5547;42.672;23.230;2024-01-07T02:26:32;24.90;;;16.60;;
10987;SDS011;5547;42.672;23.230;2024-01-07T02:30:31;29.08;;;18.17;;
10987;SDS011;5547;42.672;23.230;2024-01-07T02:34:30;29.93;;;18.57;;
10987;SDS011;5547;42.672;23.230;2024-01-07T02:38:29;24.50;;;17.30;;
10987;SDS011;5547;42.672;23.230;2024-01-07T02:42:28;25.05;;;16.48;;
10987;SDS011;5547;42.672;23.230;2024-01-07T02:46:27;25.53;;;16.30;;
10987;SDS011;5547;42.672;23.230;2024-01-07T02:50:26;23.60;;;15.98;;
10987;SDS011;5547;42.672;23.230;2024-01-07T02:54:25;22.67;;;15.38;;
10987;SDS011;5547;42.672;23.230;2024-01-07T02:58:24;22.40;;;14.87;;
10987;SDS011;5547;42.672;23.230;2024-01-07T03:02:22;29.13;;;14.63;;
10987;SDS011;5547;42.672;23.230;2024-01-07T03:06:21;24.50;;;13.25;;
10987;SDS011;5547;42.672;23.230;2024-01-07T03:10:20;20.20;;;13.43;;
10987;SDS011;5547;42.672;23.230;2024-01-07T03:14:19;21.85;;;12.23;;
10987;SDS011;5547;42.672;23.230;2024-01-07T03:18:18;15.90;;;10.82;;
10987;SDS011;5547;42.672;23.230;2024-01-07T03:22:17;12.23;;;8.88;;
10987;SDS011;5547;42.672;23.230;2024-01-07T03:26:16;10.88;;;7.43;;
10987;SDS011;5547;42.672;23.230;2024-01-07T03:30:16;10.20;;;6.17;;
10987;SDS011;5547;42.672;23.230;2024-01-07T03:34:15;10.63;;;7.63;;
10987;SDS011;5547;42.672;23.230;2024-01-07T03:38:14;8.05;;;5.43;;
10987;SDS011;5547;42.672;23.230;2024-01-07T03:42:13;7.10;;;4.53;;
10987;SDS011;5547;42.672;23.230;2024-01-07T03:46:12;5.75;;;4.38;;
10987;SDS011;5547;42.672;23.230;2024-01-07T03:50:11;6.03;;;4.18;;
10987;SDS011;5547;42.672;23.230;2024-01-07T03:54:10;5.72;;;3.80;;
10987;SDS011;5547;42.672;23.230;2024-01-07T03:58:09;4.30;;;3.00;;
10987;SDS011;5547;42.672;23.230;2024-01-07T04:02:08;2.90;;;2.60;;
10987;SDS011;5547;42.672;23.230;2024-01-07T04:06:07;3.00;;;1.95;;
10987;SDS011;5547;42.672;23.230;2024-01-07T04:10:06;4.03;;;2.60;;
10987;SDS011;5547;42.672;23.230;2024-01-07T04:14:05;3.08;;;1.92;;
10987;SDS011;5547;42.672;23.230;2024-01-07T04:18:04;2.80;;;2.07;;
10987;SDS011;5547;42.672;23.230;2024-01-07T04:22:03;2.90;;;1.90;;
10987;SDS011;5547;42.672;23.230;2024-01-07T04:26:02;2.90;;;2.15;;
10987;SDS011;5547;42.672;23.230;2024-01-07T04:30:01;2.27;;;1.33;;
10987;SDS011;5547;42.672;23.230;2024-01-07T04:34:01;2.17;;;1.35;;
10987;SDS011;5547;42.672;23.230;2024-01-07T04:38:00;2.53;;;2.10;;
10987;SDS011;5547;42.672;23.230;2024-01-07T04:41:58;7.70;;;2.20;;
10987;SDS011;5547;42.672;23.230;2024-01-07T04:45:57;3.50;;;2.35;;
10987;SDS011;5547;42.672;23.230;2024-01-07T04:49:57;4.43;;;2.70;;
10987;SDS011;5547;42.672;23.230;2024-01-07T04:53:56;6.10;;;3.77;;
10987;SDS011;5547;42.672;23.230;2024-01-07T04:57:55;5.00;;;3.40;;
10987;SDS011;5547;42.672;23.230;2024-01-07T05:01:54;4.95;;;3.30;;
10987;SDS011;5547;42.672;23.230;2024-01-07T05:05:53;4.30;;;3.38;;
10987;SDS011;5547;42.672;23.230;2024-01-07T05:09:52;4.83;;;3.00;;
10987;SDS011;5547;42.672;23.230;2024-01-07T05:13:50;3.55;;;2.20;;
10987;SDS011;5547;42.672;23.230;2024-01-07T05:17:49;2.67;;;1.80;;
10987;SDS011;5547;42.672;23.230;2024-01-07T05:21:49;5.00;;;4.00;;
10987;SDS011;5547;42.672;23.230;2024-01-07T05:25:48;9.27;;;7.10;;
10987;SDS011;5547;42.672;23.230;2024-01-07T05:29:46;4.13;;;3.22;;
10987;SDS011;5547;42.672;23.230;2024-01-07T05:33:45;3.22;;;2.70;;
10987;SDS011;5547;42.672;23.230;2024-01-07T05:37:44;41.70;;;27.38;;
10987;SDS011;5547;42.672;23.230;2024-01-07T05:41:44;1.35;;;1.17;;
10987;SDS011;5547;42.672;23.230;2024-01-07T05:45:43;2.70;;;1.90;;
10987;SDS011;5547;42.672;23.230;2024-01-07T05:49:42;2.22;;;1.83;;
10987;SDS011;5547;42.672;23.230;2024-01-07T05:53:42;3.60;;;2.00;;
10987;SDS011;5547;42.672;23.230;2024-01-07T05:57:43;8.77;;;6.43;;
10987;SDS011;5547;42.672;23.230;2024-01-07T06:01:43;10.90;;;7.33;;
10987;SDS011;5547;42.672;23.230;2024-01-07T06:05:42;11.38;;;8.20;;
10987;SDS011;5547;42.672;23.230;2024-01-07T06:09:41;11.40;;;9.05;;
10987;SDS011;5547;42.672;23.230;2024-01-07T06:13:40;16.02;;;9.95;;
10987;SDS011;5547;42.672;23.230;2024-01-07T06:17:39;15.88;;;11.18;;
10987;SDS011;5547;42.672;23.230;2024-01-07T06:21:38;16.10;;;11.13;;
10987;SDS011;5547;42.672;23.230;2024-01-07T06:25:37;13.73;;;8.88;;
10987;SDS011;5547;42.672;23.230;2024-01-07T06:29:36;12.53;;;9.37;;
10987;SDS011;5547;42.672;23.230;2024-01-07T06:33:35;13.30;;;8.70;;
10987;SDS011;5547;42.672;23.230;2024-01-07T06:37:34;10.43;;;7.25;;
10987;SDS011;5547;42.672;23.230;2024-01-07T06:41:34;9.55;;;6.03;;
10987;SDS011;5547;42.672;23.230;2024-01-07T06:45:33;12.68;;;8.70;;
10987;SDS011;5547;42.672;23.230;2024-01-07T06:49:34;14.83;;;10.07;;
10987;SDS011;5547;42.672;23.230;2024-01-07T06:53:33;15.85;;;10.80;;
10987;SDS011;5547;42.672;23.230;2024-01-07T06:57:32;13.18;;;10.52;;
10987;SDS011;5547;42.672;23.230;2024-01-07T07:01:32;17.10;;;12.15;;
10987;SDS011;5547;42.672;23.230;2024-01-07T07:05:31;18.53;;;13.87;;
10987;SDS011;5547;42.672;23.230;2024-01-07T07:09:30;16.05;;;12.57;;
10987;SDS011;5547;42.672;23.230;2024-01-07T07:13:29;18.38;;;13.65;;
10987;SDS011;5547;42.672;23.230;2024-01-07T07:17:27;17.87;;;12.83;;
10987;SDS011;5547;42.672;23.230;2024-01-07T07:21:26;34.85;;;19.67;;
10987;SDS011;5547;42.672;23.230;2024-01-07T07:25:25;23.25;;;15.63;;
10987;SDS011;5547;42.672;23.230;2024-01-07T07:29:24;18.13;;;11.90;;
10987;SDS011;5547;42.672;23.230;2024-01-07T07:33:23;15.38;;;10.38;;
10987;SDS011;5547;42.672;23.230;2024-01-07T07:37:22;15.05;;;9.68;;
10987;SDS011;5547;42.672;23.230;2024-01-07T07:41:21;14.07;;;9.20;;
10987;SDS011;5547;42.672;23.230;2024-01-07T07:45:20;13.13;;;9.32;;
10987;SDS011;5547;42.672;23.230;2024-01-07T07:49:19;16.55;;;13.77;;
10987;SDS011;5547;42.672;23.230;2024-01-07T07:53:18;15.25;;;12.45;;
10987;SDS011;5547;42.672;23.230;2024-01-07T07:57:17;16.20;;;12.00;;
10987;SDS011;5547;42.672;23.230;2024-01-07T08:01:17;14.85;;;10.48;;
10987;SDS011;5547;42.672;23.230;2024-01-07T08:05:16;15.60;;;10.60;;
10987;SDS011;5547;42.672;23.230;2024-01-07T08:09:14;20.75;;;15.13;;
10987;SDS011;5547;42.672;23.230;2024-01-07T08:13:14;13.05;;;10.40;;
10987;SDS011;5547;42.672;23.230;2024-01-07T08:17:12;14.23;;;10.00;;
10987;SDS011;5547;42.672;23.230;2024-01-07T08:21:11;28.67;;;16.38;;
10987;SDS011;5547;42.672;23.230;2024-01-07T08:25:10;12.68;;;10.10;;
10987;SDS011;5547;42.672;23.230;2024-01-07T08:29:09;11.43;;;8.30;;
10987;SDS011;5547;42.672;23.230;2024-01-07T08:33:08;12.73;;;8.73;;
10987;SDS011;5547;42.672;23.230;2024-01-07T08:37:07;30.35;;;17.05;;
10987;SDS011;5547;42.672;23.230;2024-01-07T08:41:06;17.27;;;10.45;;
10987;SDS011;5547;42.672;23.230;2024-01-07T08:45:05;12.30;;;9.37;;
10987;SDS011;5547;42.672;23.230;2024-01-07T08:49:05;9.37;;;7.53;;
10987;SDS011;5547;42.672;23.230;2024-01-07T08:53:04;9.60;;;6.70;;
10987;SDS011;5547;42.672;23.230;2024-01-07T08:57:03;18.23;;;12.65;;
10987;SDS011;5547;42.672;23.230;2024-01-07T09:01:02;10.60;;;7.33;;
10987;SDS011;5547;42.672;23.230;2024-01-07T09:05:02;9.10;;;6.88;;
10987;SDS011;5547;42.672;23.230;2024-01-07T09:09:02;9.60;;;7.78;;
10987;SDS011;5547;42.672;23.230;2024-01-07T09:13:02;12.20;;;10.00;;
10987;SDS011;5547;42.672;23.230;2024-01-07T09:17:01;11.40;;;9.27;;
10987;SDS011;5547;42.672;23.230;2024-01-07T09:21:00;14.23;;;10.63;;
10987;SDS011;5547;42.672;23.230;2024-01-07T09:24:59;11.38;;;9.02;;
10987;SDS011;5547;42.672;23.230;2024-01-07T09:28:58;8.95;;;7.65;;
10987;SDS011;5547;42.672;23.230;2024-01-07T09:32:57;14.13;;;8.02;;
10987;SDS011;5547;42.672;23.230;2024-01-07T09:36:55;12.85;;;9.07;;
10987;SDS011;5547;42.672;23.230;2024-01-07T09:40:54;7.70;;;4.93;;
10987;SDS011;5547;42.672;23.230;2024-01-07T09:44:53;2.05;;;0.90;;
10987;SDS011;5547;42.672;23.230;2024-01-07T09:48:53;4.40;;;1.00;;
10987;SDS011;5547;42.672;23.230;2024-01-07T09:52:52;3.40;;;1.05;;
10987;SDS011;5547;42.672;23.230;2024-01-07T09:57:00;3.50;;;0.90;;
10987;SDS011;5547;42.672;23.230;2024-01-07T10:00:59;2.22;;;1.00;;
10987;SDS011;5547;42.672;23.230;2024-01-07T10:04:58;4.15;;;1.05;;
10987;SDS011;5547;42.672;23.230;2024-01-07T10:08:58;4.40;;;2.30;;
10987;SDS011;5547;42.672;23.230;2024-01-07T10:12:57;6.78;;;4.03;;
10987;SDS011;5547;42.672;23.230;2024-01-07T10:16:55;3.78;;;2.28;;
10987;SDS011;5547;42.672;23.230;2024-01-07T10:21:01;5.88;;;2.17;;
10987;SDS011;5547;42.672;23.230;2024-01-07T10:25:04;6.20;;;4.28;;
10987;SDS011;5547;42.672;23.230;2024-01-07T10:29:07;3.05;;;1.02;;
10987;SDS011;5547;42.672;23.230;2024-01-07T10:33:06;5.15;;;1.00;;
10987;SDS011;5547;42.672;23.230;2024-01-07T10:37:08;4.05;;;0.93;;
10987;SDS011;5547;42.672;23.230;2024-01-07T10:41:08;3.00;;;0.95;;
10987;SDS011;5547;42.672;23.230;2024-01-07T10:45:09;8.95;;;5.55;;
10987;SDS011;5547;42.672;23.230;2024-01-07T10:49:30;13.67;;;8.40;;
10987;SDS011;5547;42.672;23.230;2024-01-07T10:53:33;9.25;;;5.10;;
10987;SDS011;5547;42.672;23.230;2024-01-07T10:57:46;8.57;;;5.03;;
10987;SDS011;5547;42.672;23.230;2024-01-07T11:01:46;5.80;;;3.25;;
10987;SDS011;5547;42.672;23.230;2024-01-07T11:06:31;5.03;;;1.45;;
10987;SDS011;5547;42.672;23.230;2024-01-07T11:10:38;2.37;;;0.90;;
10987;SDS011;5547;42.672;23.230;2024-01-07T11:14:45;2.88;;;0.88;;
10987;SDS011;5547;42.672;23.230;2024-01-07T11:18:50;1.73;;;0.93;;
10987;SDS011;5547;42.672;23.230;2024-01-07T11:22:51;1.90;;;0.80;;
10987;SDS011;5547;42.672;23.230;2024-01-07T11:26:50;2.38;;;1.10;;
10987;SDS011;5547;42.672;23.230;2024-01-07T11:30:49;3.23;;;2.27;;
10987;SDS011;5547;42.672;23.230;2024-01-07T11:34:53;2.15;;;0.90;;
10987;SDS011;5547;42.672;23.230;2024-01-07T11:38:58;8.27;;;3.58;;
10987;SDS011;5547;42.672;23.230;2024-01-07T11:42:58;5.13;;;2.85;;
10987;SDS011;5547;42.672;23.230;2024-01-07T11:46:59;3.95;;;2.10;;
10987;SDS011;5547;42.672;23.230;2024-01-07T11:50:58;9.10;;;5.70;;
10987;SDS011;5547;42.672;23.230;2024-01-07T11:54:57;2.83;;;1.40;;
10987;SDS011;5547;42.672;23.230;2024-01-07T11:58:57;3.22;;;1.60;;
10987;SDS011;5547;42.672;23.230;2024-01-07T12:02:56;3.42;;;1.27;;
10987;SDS011;5547;42.672;23.230;2024-01-07T12:06:54;3.17;;;1.10;;
10987;SDS011;5547;42.672;23.230;2024-01-07T12:10:54;2.92;;;1.10;;
10987;SDS011;5547;42.672;23.230;2024-01-07T12:14:53;2.80;;;1.20;;
10987;SDS011;5547;42.672;23.230;2024-01-07T12:18:54;7.90;;;5.60;;
10987;SDS011;5547;42.672;23.230;2024-01-07T12:22:56;8.97;;;7.07;;
10987;SDS011;5547;42.672;23.230;2024-01-07T12:26:57;9.73;;;6.60;;
10987;SDS011;5547;42.672;23.230;2024-01-07T12:31:02;8.35;;;6.05;;
10987;SDS011;5547;42.672;23.230;2024-01-07T12:35:03;7.07;;;5.82;;
10987;SDS011;5547;42.672;23.230;2024-01-07T12:39:02;9.50;;;6.50;;
10987;SDS011;5547;42.672;23.230;2024-01-07T12:43:01;8.18;;;6.40;;
10987;SDS011;5547;42.672;23.230;2024-01-07T12:47:00;17.92;;;12.48;;
10987;SDS011;5547;42.672;23.230;2024-01-07T12:51:02;9.85;;;7.10;;
10987;SDS011;5547;42.672;23.230;2024-01-07T12:55:04;9.40;;;7.17;;
10987;SDS011;5547;42.672;23.230;2024-01-07T12:59:03;8.50;;;7.20;;
10987;SDS011;5547;42.672;23.230;2024-01-07T13:03:06;14.20;;;10.47;;
10987;SDS011;5547;42.672;23.230;2024-01-07T13:07:06;9.00;;;6.47;;
10987;SDS011;5547;42.672;23.230;2024-01-07T13:11:05;11.93;;;7.40;;
10987;SDS011;5547;42.672;23.230;2024-01-07T13:15:04;11.15;;;8.30;;
10987;SDS011;5547;42.672;23.230;2024-01-07T13:19:03;10.45;;;7.30;;
10987;SDS011;5547;42.672;23.230;2024-01-07T13:23:06;6.07;;;4.18;;
10987;SDS011;5547;42.672;23.230;2024-01-07T13:27:05;14.30;;;9.63;;
10987;SDS011;5547;42.672;23.230;2024-01-07T13:31:04;24.57;;;12.63;;
10987;SDS011;5547;42.672;23.230;2024-01-07T13:35:04;8.93;;;7.50;;
10987;SDS011;5547;42.672;23.230;2024-01-07T13:39:08;12.60;;;9.55;;
10987;SDS011;5547;42.672;23.230;2024-01-07T13:43:10;14.27;;;11.65;;
10987;SDS011;5547;42.672;23.230;2024-01-07T13:47:17;6.20;;;3.70;;
10987;SDS011;5547;42.672;23.230;2024-01-07T13:51:16;7.75;;;5.50;;
10987;SDS011;5547;42.672;23.230;2024-01-07T13:55:15;7.90;;;5.57;;
10987;SDS011;5547;42.672;23.230;2024-01-07T13:59:14;7.93;;;4.80;;
10987;SDS011;5547;42.672;23.230;2024-01-07T14:03:18;4.82;;;2.90;;
10987;SDS011;5547;42.672;23.230;2024-01-07T14:07:18;5.13;;;3.73;;
10987;SDS011;5547;42.672;23.230;2024-01-07T14:11:20;9.63;;;5.50;;
10987;SDS011;5547;42.672;23.230;2024-01-07T14:15:19;7.55;;;4.22;;
10987;SDS011;5547;42.672;23.230;2024-01-07T14:19:18;8.10;;;4.55;;
10987;SDS011;5547;42.672;23.230;2024-01-07T14:23:17;8.15;;;4.75;;
10987;SDS011;5547;42.672;23.230;2024-01-07T14:27:16;7.05;;;4.28;;
10987;SDS011;5547;42.672;23.230;2024-01-07T14:31:15;6.68;;;3.03;;
10987;SDS011;5547;42.672;23.230;2024-01-07T14:35:14;4.73;;;2.43;;
10987;SDS011;5547;42.672;23.230;2024-01-07T14:39:16;4.78;;;2.20;;
10987;SDS011;5547;42.672;23.230;2024-01-07T14:43:15;4.40;;;2.60;;
10987;SDS011;5547;42.672;23.230;2024-01-07T14:47:16;6.47;;;3.00;;
10987;SDS011;5547;42.672;23.230;2024-01-07T14:51:15;5.88;;;3.22;;
10987;SDS011;5547;42.672;23.230;2024-01-07T14:55:14;5.07;;;3.72;;
10987;SDS011;5547;42.672;23.230;2024-01-07T14:59:14;7.30;;;4.20;;
10987;SDS011;5547;42.672;23.230;2024-01-07T15:03:13;5.03;;;4.03;;
10987;SDS011;5547;42.672;23.230;2024-01-07T15:07:12;6.00;;;4.00;;
10987;SDS011;5547;42.672;23.230;2024-01-07T15:11:14;5.65;;;4.45;;
10987;SDS011;5547;42.672;23.230;2024-01-07T15:15:13;6.50;;;4.25;;
10987;SDS011;5547;42.672;23.230;2024-01-07T15:19:12;5.35;;;3.80;;
10987;SDS011;5547;42.672;23.230;2024-01-07T15:23:11;6.25;;;4.72;;
10987;SDS011;5547;42.672;23.230;2024-01-07T15:27:10;5.68;;;4.20;;
10987;SDS011;5547;42.672;23.230;2024-01-07T15:31:09;5.35;;;3.60;;
10987;SDS011;5547;42.672;23.230;2024-01-07T15:35:08;7.50;;;6.70;;
10987;SDS011;5547;42.672;23.230;2024-01-07T15:39:07;7.47;;;5.88;;
10987;SDS011;5547;42.672;23.230;2024-01-07T15:43:06;7.93;;;5.75;;
10987;SDS011;5547;42.672;23.230;2024-01-07T15:47:05;11.70;;;9.25;;
10987;SDS011;5547;42.672;23.230;2024-01-07T15:51:05;75.25;;;16.08;;
10987;SDS011;5547;42.672;23.230;2024-01-07T15:55:04;20.80;;;11.20;;
10987;SDS011;5547;42.672;23.230;2024-01-07T15:59:06;8.80;;;6.90;;
10987;SDS011;5547;42.672;23.230;2024-01-07T16:03:06;9.13;;;6.22;;
10987;SDS011;5547;42.672;23.230;2024-01-07T16:07:04;6.95;;;5.63;;
10987;SDS011;5547;42.672;23.230;2024-01-07T16:11:03;13.77;;;7.80;;
10987;SDS011;5547;42.672;23.230;2024-01-07T16:15:03;19.05;;;12.05;;
10987;SDS011;5547;42.672;23.230;2024-01-07T16:19:02;16.23;;;9.95;;
10987;SDS011;5547;42.672;23.230;2024-01-07T16:23:01;13.52;;;9.55;;
10987;SDS011;5547;42.672;23.230;2024-01-07T16:27:00;18.80;;;11.90;;
10987;SDS011;5547;42.672;23.230;2024-01-07T16:30:59;36.10;;;21.13;;
10987;SDS011;5547;42.672;23.230;2024-01-07T16:34:58;22.70;;;14.90;;
10987;SDS011;5547;42.672;23.230;2024-01-07T16:38:57;21.92;;;15.55;;
10987;SDS011;5547;42.672;23.230;2024-01-07T16:42:56;25.70;;;15.30;;
10987;SDS011;5547;42.672;23.230;2024-01-07T16:46:55;22.42;;;15.48;;
10987;SDS011;5547;42.672;23.230;2024-01-07T16:50:54;18.80;;;13.23;;
10987;SDS011;5547;42.672;23.230;2024-01-07T16:54:53;21.67;;;14.73;;
10987;SDS011;5547;42.672;23.230;2024-01-07T16:58:52;21.08;;;14.23;;
10987;SDS011;5547;42.672;23.230;2024-01-07T17:02:51;19.95;;;14.07;;
10987;SDS011;5547;42.672;23.230;2024-01-07T17:06:50;36.60;;;24.73;;
10987;SDS011;5547;42.672;23.230;2024-01-07T17:10:49;18.02;;;13.10;;
10987;SDS011;5547;42.672;23.230;2024-01-07T17:14:49;17.42;;;10.07;;
10987;SDS011;5547;42.672;23.230;2024-01-07T17:18:48;12.30;;;6.60;;
10987;SDS011;5547;42.672;23.230;2024-01-07T17:22:47;115.65;;;18.67;;
10987;SDS011;5547;42.672;23.230;2024-01-07T17:26:51;8.30;;;5.75;;
10987;SDS011;5547;42.672;23.230;2024-01-07T17:30:50;7.95;;;5.28;;
10987;SDS011;5547;42.672;23.230;2024-01-07T17:34:49;10.18;;;6.93;;
10987;SDS011;5547;42.672;23.230;2024-01-07T17:38:48;13.45;;;11.55;;
10987;SDS011;5547;42.672;23.230;2024-01-07T17:42:47;16.80;;;13.15;;
10987;SDS011;5547;42.672;23.230;2024-01-07T17:46:46;9.93;;;6.50;;
10987;SDS011;5547;42.672;23.230;2024-01-07T17:50:45;11.35;;;7.95;;
10987;SDS011;5547;42.672;23.230;2024-01-07T17:54:44;16.50;;;13.30;;
10987;SDS011;5547;42.672;23.230;2024-01-07T17:58:44;28.73;;;19.23;;
10987;SDS011;5547;42.672;23.230;2024-01-07T18:02:43;30.77;;;21.33;;
10987;SDS011;5547;42.672;23.230;2024-01-07T18:06:43;29.85;;;21.63;;
10987;SDS011;5547;42.672;23.230;2024-01-07T18:10:42;28.80;;;22.83;;
10987;SDS011;5547;42.672;23.230;2024-01-07T18:14:41;27.63;;;20.90;;
10987;SDS011;5547;42.672;23.230;2024-01-07T18:18:40;30.95;;;22.73;;
10987;SDS011;5547;42.672;23.230;2024-01-07T18:22:39;28.40;;;21.33;;
10987;SDS011;5547;42.672;23.230;2024-01-07T18:26:38;30.33;;;24.10;;
10987;SDS011;5547;42.672;23.230;2024-01-07T18:30:37;32.72;;;23.98;;
10987;SDS011;5547;42.672;23.230;2024-01-07T18:34:40;28.17;;;20.67;;
10987;SDS011;5547;42.672;23.230;2024-01-07T18:38:41;23.35;;;18.40;;
10987;SDS011;5547;42.672;23.230;2024-01-07T18:42:40;21.50;;;16.63;;
10987;SDS011;5547;42.672;23.230;2024-01-07T18:46:40;16.38;;;12.10;;
10987;SDS011;5547;42.672;23.230;2024-01-07T18:50:43;8.35;;;6.50;;
10987;SDS011;5547;42.672;23.230;2024-01-07T18:54:43;12.70;;;9.27;;
10987;SDS011;5547;42.672;23.230;2024-01-07T18:58:46;16.75;;;12.02;;
10987;SDS011;5547;42.672;23.230;2024-01-07T19:02:45;17.65;;;13.25;;
10987;SDS011;5547;42.672;23.230;2024-01-07T19:06:44;14.10;;;11.25;;
10987;SDS011;5547;42.672;23.230;2024-01-07T19:10:43;12.43;;;9.68;;
10987;SDS011;5547;42.672;23.230;2024-01-07T19:14:42;21.33;;;12.90;;
10987;SDS011;5547;42.672;23.230;2024-01-07T19:18:45;36.47;;;20.00;;
10987;SDS011;5547;42.672;23.230;2024-01-07T19:22:43;40.13;;;18.90;;
10987;SDS011;5547;42.672;23.230;2024-01-07T19:26:43;30.75;;;16.00;;
10987;SDS011;5547;42.672;23.230;2024-01-07T19:30:42;17.70;;;11.27;;
10987;SDS011;5547;42.672;23.230;2024-01-07T19:34:41;27.10;;;14.93;;
10987;SDS011;5547;42.672;23.230;2024-01-07T19:38:40;35.15;;;17.48;;
10987;SDS011;5547;42.672;23.230;2024-01-07T19:42:39;19.67;;;10.25;;
10987;SDS011;5547;42.672;23.230;2024-01-07T19:46:38;18.05;;;12.10;;
10987;SDS011;5547;42.672;23.230;2024-01-07T19:50:37;31.48;;;16.55;;
10987;SDS011;5547;42.672;23.230;2024-01-07T19:54:36;38.83;;;23.83;;
10987;SDS011;5547;42.672;23.230;2024-01-07T19:58:35;26.60;;;16.83;;
10987;SDS011;5547;42.672;23.230;2024-01-07T20:02:37;13.63;;;8.55;;
10987;SDS011;5547;42.672;23.230;2024-01-07T20:06:40;13.73;;;9.10;;
10987;SDS011;5547;42.672;23.230;2024-01-07T20:10:39;7.65;;;5.50;;
10987;SDS011;5547;42.672;23.230;2024-01-07T20:14:39;8.40;;;5.82;;
10987;SDS011;5547;42.672;23.230;2024-01-07T20:18:39;8.48;;;6.18;;
10987;SDS011;5547;42.672;23.230;2024-01-07T20:22:39;7.75;;;5.70;;
10987;SDS011;5547;42.672;23.230;2024-01-07T20:26:38;9.18;;;6.88;;
10987;SDS011;5547;42.672;23.230;2024-01-07T20:30:37;8.82;;;6.90;;
10987;SDS011;5547;42.672;23.230;2024-01-07T20:34:36;9.23;;;6.85;;
10987;SDS011;5547;42.672;23.230;2024-01-07T20:38:38;10.70;;;7.55;;
10987;SDS011;5547;42.672;23.230;2024-01-07T20:42:37;10.55;;;7.05;;
10987;SDS011;5547;42.672;23.230;2024-01-07T20:46:37;8.10;;;6.85;;
10987;SDS011;5547;42.672;23.230;2024-01-07T20:50:36;8.63;;;5.72;;
10987;SDS011;5547;42.672;23.230;2024-01-07T20:54:37;8.33;;;5.70;;
10987;SDS011;5547;42.672;23.230;2024-01-07T20:58:36;7.73;;;5.57;;
10987;SDS011;5547;42.672;23.230;2024-01-07T21:02:36;8.02;;;5.00;;
10987;SDS011;5547;42.672;23.230;2024-01-07T21:06:37;8.07;;;5.28;;
10987;SDS011;5547;42.672;23.230;2024-01-07T21:10:36;5.10;;;3.90;;
10987;SDS011;5547;42.672;23.230;2024-01-07T21:14:35;4.75;;;2.60;;
10987;SDS011;5547;42.672;23.230;2024-01-07T21:18:40;3.30;;;2.00;;
10987;SDS011;5547;42.672;23.230;2024-01-07T21:22:39;1.40;;;0.80;;
10987;SDS011;5547;42.672;23.230;2024-01-07T21:26:39;2.50;;;1.30;;
10987;SDS011;5547;42.672;23.230;2024-01-07T21:30:38;1.15;;;0.57;;
10987;SDS011;5547;42.672;23.230;2024-01-07T21:34:39;0.90;;;0.52;;
10987;SDS011;5547;42.672;23.230;2024-01-07T21:38:38;1.30;;;0.80;;
10987;SDS011;5547;42.672;23.230;2024-01-07T21:42:39;1.25;;;0.55;;
10987;SDS011;5547;42.672;23.230;2024-01-07T21:46:43;1.77;;;1.23;;
10987;SDS011;5547;42.672;23.230;2024-01-07T21:50:41;2.93;;;1.50;;
10987;SDS011;5547;42.672;23.230;2024-01-07T21:54:41;4.60;;;1.90;;
10987;SDS011;5547;42.672;23.230;2024-01-07T21:58:40;5.97;;;3.42;;
10987;SDS011;5547;42.672;23.230;2024-01-07T22:02:40;3.97;;;2.33;;
10987;SDS011;5547;42.672;23.230;2024-01-07T22:06:40;4.45;;;2.60;;
10987;SDS011;5547;42.672;23.230;2024-01-07T22:10:39;3.67;;;2.60;;
10987;SDS011;5547;42.672;23.230;2024-01-07T22:14:40;6.70;;;4.72;;
10987;SDS011;5547;42.672;23.230;2024-01-07T22:18:41;4.40;;;2.30;;
10987;SDS011;5547;42.672;23.230;2024-01-07T22:22:40;8.15;;;5.80;;
10987;SDS011;5547;42.672;23.230;2024-01-07T22:26:39;4.60;;;3.03;;
10987;SDS011;5547;42.672;23.230;2024-01-07T22:30:38;3.00;;;1.83;;
10987;SDS011;5547;42.672;23.230;2024-01-07T22:34:37;4.40;;;3.10;;
10987;SDS011;5547;42.672;23.230;2024-01-07T22:38:36;6.45;;;5.30;;
10987;SDS011;5547;42.672;23.230;2024-01-07T22:42:35;7.00;;;5.20;;
10987;SDS011;5547;42.672;23.230;2024-01-07T22:46:34;5.85;;;4.00;;
10987;SDS011;5547;42.672;23.230;2024-01-07T22:50:33;10.20;;;6.68;;
10987;SDS011;5547;42.672;23.230;2024-01-07T22:54:31;9.75;;;6.57;;
10987;SDS011;5547;42.672;23.230;2024-01-07T22:58:30;9.95;;;6.25;;
10987;SDS011;5547;42.672;23.230;2024-01-07T23:02:29;6.13;;;4.35;;
10987;SDS011;5547;42.672;23.230;2024-01-07T23:06:28;6.40;;;3.90;;
10987;SDS011;5547;42.672;23.230;2024-01-07T23:10:28;5.13;;;3.33;;
10987;SDS011;5547;42.672;23.230;2024-01-07T23:14:27;5.85;;;3.58;;
10987;SDS011;5547;42.672;23.230;2024-01-07T23:18:27;6.68;;;5.10;;
10987;SDS011;5547;42.672;23.230;2024-01-07T23:22:26;15.23;;;10.27;;
10987;SDS011;5547;42.672;23.230;2024-01-07T23:26:24;6.87;;;5.90;;
10987;SDS011;5547;42.672;23.230;2024-01-07T23:30:26;5.63;;;4.35;;
10987;SDS011;5547;42.672;23.230;2024-01-07T23:34:25;3.47;;;2.97;;
10987;SDS011;5547;42.672;23.230;2024-01-07T23:38:24;5.15;;;3.95;;
10987;SDS011;5547;42.672;23.230;2024-01-07T23:42:23;6.50;;;3.85;;
10987;SDS011;5547;42.672;23.230;2024-01-07T23:46:22;5.38;;;3.85;;